Time;durP1;ratioP1;P1;durP2;ratioP2;P2;SDS_P1;SDS_P2;PMS_P1;PMS_P2;Temp;Humidity;BMP_temperature;BMP_pressure;BME280_temperature;BME280_humidity;BME280_pressure;Samples;Min_cycle;Max_cycle;Signal;HPM_P1;HPM_P2
2022/08/02 00:01:41;;;;;;;;;2.25;2.25;;;;;22.74;55.29;101039.91;5064201;28;45361;-76
2022/08/02 00:04:09;;;;;;;;;5.00;5.00;;;;;22.71;55.14;101034.72;5070349;28;45346;-75
2022/08/02 00:06:34;;;;;;;;;4.50;4.50;;;;;22.66;55.73;101037.69;5058998;28;46098;-76
2022/08/02 00:09:00;;;;;;;;;5.75;5.75;;;;;22.67;55.61;101042.13;5074817;28;45357;-77
2022/08/02 00:11:26;;;;;;;;;4.00;4.00;;;;;22.59;55.74;101039.03;5060162;28;45483;-75
2022/08/02 00:13:51;;;;;;;;;5.00;3.75;;;;;22.60;55.79;101037.25;5060757;27;45895;-76
2022/08/02 00:16:17;;;;;;;;;2.50;2.50;;;;;22.53;55.86;101043.00;5056868;28;47030;-76
2022/08/02 00:18:42;;;;;;;;;4.50;4.50;;;;;22.52;55.66;101041.28;5056881;28;45332;-75
2022/08/02 00:21:08;;;;;;;;;4.50;4.00;;;;;22.46;56.14;101030.88;5064438;27;45515;-76
2022/08/02 00:23:34;;;;;;;;;3.50;3.00;;;;;22.42;55.68;101033.88;5056924;28;45539;-75
2022/08/02 00:25:59;;;;;;;;;4.50;4.50;;;;;22.46;56.06;101041.66;5061490;27;45402;-76
2022/08/02 00:28:26;;;;;;;;;3.00;3.00;;;;;22.43;55.47;101033.78;5076725;28;45420;-75
2022/08/02 00:30:51;;;;;;;;;4.00;3.00;;;;;22.38;55.28;101027.81;5068114;28;45460;-76
2022/08/02 00:33:17;;;;;;;;;4.25;3.75;;;;;22.44;55.23;101023.84;5072458;27;45572;-77
2022/08/02 00:35:46;;;;;;;;;1.50;1.50;;;;;22.43;55.19;101025.69;5059757;28;45926;-76
2022/08/02 00:38:11;;;;;;;;;4.00;4.00;;;;;22.28;55.62;101002.41;5057465;28;45403;-76
2022/08/02 00:40:37;;;;;;;;;3.75;3.00;;;;;22.32;55.57;101017.44;5056562;28;45481;-76
2022/08/02 00:43:08;;;;;;;;;3.50;3.50;;;;;22.31;55.58;101026.47;5062587;28;45508;-76
2022/08/02 00:45:35;;;;;;;;;3.00;3.00;;;;;22.24;55.55;101025.94;5065783;28;46013;-76
2022/08/02 00:48:01;;;;;;;;;4.00;4.00;;;;;22.23;55.77;101031.41;5076956;27;45510;-75
2022/08/02 00:50:27;;;;;;;;;4.50;3.00;;;;;22.21;55.84;101026.13;5075215;28;45525;-77
2022/08/02 00:52:53;;;;;;;;;3.50;3.50;;;;;22.19;55.69;101028.06;5076264;27;45607;-75
2022/08/02 00:55:19;;;;;;;;;4.00;4.00;;;;;22.21;55.75;101020.75;5073065;28;45426;-75
2022/08/02 00:57:44;;;;;;;;;3.75;3.00;;;;;22.22;55.04;101027.00;5063316;28;45637;-74
2022/08/02 01:00:11;;;;;;;;;4.75;3.00;;;;;22.22;55.56;101035.09;5066637;28;45440;-75
2022/08/02 01:02:36;;;;;;;;;2.00;2.00;;;;;22.18;55.47;101040.66;5071779;27;45412;-75
2022/08/02 01:05:03;;;;;;;;;2.00;2.00;;;;;22.06;55.77;101021.69;5062561;27;46215;-76
2022/08/02 01:07:28;;;;;;;;;2.00;2.00;;;;;22.09;55.89;101041.22;5058516;28;45410;-75
2022/08/02 01:09:54;;;;;;;;;2.50;2.50;;;;;21.98;55.83;101030.22;5077097;28;45397;-75
2022/08/02 01:12:19;;;;;;;;;2.00;2.00;;;;;21.99;55.65;101024.75;5076800;27;45430;-76
2022/08/02 01:14:55;;;;;;;;;3.25;3.25;;;;;22.10;55.83;101040.25;5073760;27;45342;-77
2022/08/02 01:17:26;;;;;;;;;3.00;3.00;;;;;22.09;55.77;101040.34;5057728;27;46074;-78
2022/08/02 01:20:13;;;;;;;;;1.00;1.00;;;;;22.02;56.21;101039.00;5054703;28;45449;-76
2022/08/02 01:23:16;;;;;;;;;4.00;4.00;;;;;22.03;56.22;101044.28;5057486;28;45430;-77
2022/08/02 01:26:00;;;;;;;;;2.50;2.50;;;;;21.96;56.52;101042.94;5054566;28;45636;-75
2022/08/02 01:28:42;;;;;;;;;4.00;3.00;;;;;21.84;56.39;101023.00;5068425;28;45694;-76
2022/08/02 01:31:22;;;;;;;;;3.00;3.00;;;;;21.92;56.46;101044.91;5059002;27;45479;-76
2022/08/02 01:33:55;;;;;;;;;3.25;3.25;;;;;21.88;56.34;101038.00;5068010;27;45681;-76
2022/08/02 01:36:26;;;;;;;;;3.25;3.00;;;;;21.87;56.43;101038.97;5061566;28;45484;-76
2022/08/02 01:38:54;;;;;;;;;3.00;3.00;;;;;21.83;56.55;101040.09;5063205;28;45497;-75
2022/08/02 01:41:23;;;;;;;;;4.50;4.00;;;;;21.87;56.46;101054.25;5055114;28;45505;-76
2022/08/02 01:43:52;;;;;;;;;2.75;2.75;;;;;21.86;56.68;101052.50;5058826;28;45280;-76
2022/08/02 01:46:20;;;;;;;;;3.75;2.25;;;;;21.83;56.92;101046.34;5063828;27;45349;-76
2022/08/02 01:48:47;;;;;;;;;3.50;3.50;;;;;21.81;56.84;101050.94;5062783;27;45418;-75
2022/08/02 01:51:17;;;;;;;;;4.50;4.50;;;;;21.74;56.66;101036.16;5074882;28;45424;-76
2022/08/02 01:53:47;;;;;;;;;3.00;3.00;;;;;21.72;56.11;101029.97;5070963;28;45399;-73
2022/08/02 01:56:16;;;;;;;;;2.00;2.00;;;;;21.78;55.90;101048.44;5072274;27;46261;-75
2022/08/02 01:58:45;;;;;;;;;5.00;3.25;;;;;21.71;56.08;101032.75;5063962;28;45434;-76
2022/08/02 02:01:12;;;;;;;;;3.00;3.00;;;;;21.65;55.96;101036.66;5069954;28;45480;-75
2022/08/02 02:03:38;;;;;;;;;4.00;1.50;;;;;21.71;55.75;101041.72;5075296;27;45502;-77
2022/08/02 02:06:06;;;;;;;;;3.75;3.00;;;;;21.61;55.76;101035.16;5055267;28;45429;-76
2022/08/02 02:08:38;;;;;;;;;2.50;2.50;;;;;21.54;55.91;101031.94;5053721;28;45426;-76
2022/08/02 02:11:06;;;;;;;;;2.00;2.00;;;;;21.60;56.00;101036.94;5067146;28;45516;-76
2022/08/02 02:13:33;;;;;;;;;5.00;4.00;;;;;21.57;56.32;101033.59;5073650;28;45489;-77
2022/08/02 02:16:02;;;;;;;;;5.00;3.00;;;;;21.57;55.98;101036.28;5070455;28;46124;-75
2022/08/02 02:18:29;;;;;;;;;3.25;2.00;;;;;21.52;55.77;101028.47;5054466;28;45516;-76
2022/08/02 02:20:55;;;;;;;;;3.50;3.00;;;;;21.60;55.89;101031.56;5071181;27;45510;-74
2022/08/02 02:23:21;;;;;;;;;1.50;1.50;;;;;21.62;55.86;101024.28;5053753;28;45546;-76
2022/08/02 02:25:47;;;;;;;;;2.00;2.00;;;;;21.58;55.97;101019.19;5067726;28;45480;-75
2022/08/02 02:28:23;;;;;;;;;4.25;3.50;;;;;21.56;56.11;101021.97;5074757;28;45664;-75
2022/08/02 02:30:52;;;;;;;;;3.25;3.25;;;;;21.45;56.20;101006.44;5068354;28;45539;-77
2022/08/02 02:33:19;;;;;;;;;4.00;2.00;;;;;21.42;56.21;101012.00;5073017;28;45528;-75
2022/08/02 02:35:48;;;;;;;;;2.00;2.00;;;;;21.47;55.95;101023.34;5058882;28;46570;-75
2022/08/02 02:38:17;;;;;;;;;2.50;1.25;;;;;21.44;56.18;101015.44;5068394;28;45398;-77
2022/08/02 02:40:45;;;;;;;;;2.00;2.00;;;;;21.41;55.94;101015.63;5063799;28;45414;-76
2022/08/02 02:43:11;;;;;;;;;2.00;2.00;;;;;21.41;55.88;101010.25;5054619;28;45335;-76
2022/08/02 02:45:39;;;;;;;;;3.50;2.50;;;;;21.45;55.77;101019.88;5053613;28;45369;-75
2022/08/02 02:48:05;;;;;;;;;4.25;4.25;;;;;21.37;55.72;101000.63;5061645;28;45518;-75
2022/08/02 02:50:32;;;;;;;;;3.00;2.25;;;;;21.45;55.07;101013.63;5071011;28;45658;-74
2022/08/02 02:53:00;;;;;;;;;3.00;3.00;;;;;21.37;55.17;100997.94;5067078;27;45635;-75
2022/08/02 02:55:27;;;;;;;;;3.75;2.50;;;;;21.44;55.10;101018.16;5055163;28;45512;-75
2022/08/02 02:57:53;;;;;;;;;2.50;2.50;;;;;21.40;55.29;101013.03;5055110;28;45937;-76
2022/08/02 03:01:26;;;;;;;;;2.00;2.00;;;;;21.41;55.16;101021.00;5054801;28;45390;-75
2022/08/02 03:03:06;;;;;;;;;2.50;2.00;;;;;21.33;55.07;101012.50;5054755;28;45584;-76
2022/08/02 03:05:31;;;;;;;;;2.75;2.75;;;;;21.38;54.98;101010.44;5060930;28;46071;-77
2022/08/02 03:07:57;;;;;;;;;2.00;2.00;;;;;21.38;54.98;101007.75;5060977;28;45516;-76
2022/08/02 03:10:22;;;;;;;;;3.25;3.25;;;;;21.34;54.99;101002.66;5064865;27;45389;-76
2022/08/02 03:12:48;;;;;;;;;2.00;2.00;;;;;21.38;54.91;101007.75;5053755;28;45664;-76
2022/08/02 03:15:14;;;;;;;;;3.00;3.00;;;;;21.33;55.00;101007.13;5062987;28;45558;-75
2022/08/02 03:17:42;;;;;;;;;4.00;4.00;;;;;21.33;55.09;101014.34;5069351;27;45398;-75
2022/08/02 03:20:17;;;;;;;;;2.25;2.25;;;;;21.30;55.16;101007.31;5069064;28;45755;-76
2022/08/02 03:22:43;;;;;;;;;1.50;1.50;;;;;21.26;55.13;101017.38;5060527;28;45561;-76
2022/08/02 03:25:10;;;;;;;;;3.00;3.00;;;;;21.23;55.34;101005.97;5073102;27;45538;-76
2022/08/02 03:27:36;;;;;;;;;2.00;2.00;;;;;21.21;55.15;101007.84;5074341;28;45444;-75
2022/08/02 03:30:02;;;;;;;;;2.25;2.25;;;;;21.18;55.15;101016.09;5075857;28;45757;-76
2022/08/02 03:32:27;;;;;;;;;3.50;3.50;;;;;21.10;55.11;100998.63;5072029;28;45389;-76
2022/08/02 03:34:53;;;;;;;;;4.00;2.50;;;;;21.22;55.14;101017.66;5059020;27;46925;-77
2022/08/02 03:37:20;;;;;;;;;2.00;2.00;;;;;21.21;55.19;101014.13;5058366;28;45318;-76
2022/08/02 03:39:47;;;;;;;;;3.50;3.50;;;;;21.19;55.20;101015.16;5053923;28;45394;-76
2022/08/02 03:42:13;;;;;;;;;3.00;3.00;;;;;21.16;55.50;101007.25;5063964;27;45434;-76
2022/08/02 03:44:39;;;;;;;;;2.25;2.25;;;;;21.16;55.38;101008.13;5057201;28;46095;-77
2022/08/02 03:47:06;;;;;;;;;2.00;2.00;;;;;21.14;55.64;101012.72;5074151;28;45501;-74
2022/08/02 03:49:32;;;;;;;;;2.00;2.00;;;;;21.09;55.46;101007.63;5074469;28;45535;-75
2022/08/02 03:52:00;;;;;;;;;1.00;1.00;;;;;21.08;55.53;101013.09;5071832;28;45458;-75
2022/08/02 03:54:26;;;;;;;;;2.25;2.00;;;;;21.04;55.51;100996.25;5055633;28;45483;-75
2022/08/02 03:56:51;;;;;;;;;2.50;1.25;;;;;21.00;55.65;101000.09;5067068;27;45693;-75
2022/08/02 03:59:17;;;;;;;;;1.25;1.25;;;;;21.00;55.88;101000.09;5072259;27;45454;-75
2022/08/02 04:01:43;;;;;;;;;3.25;3.00;;;;;20.95;55.63;100986.03;5066640;28;45372;-75
2022/08/02 04:04:10;;;;;;;;;3.00;3.00;;;;;20.90;56.13;100985.44;5057077;28;45417;-75
2022/08/02 04:06:35;;;;;;;;;2.00;2.00;;;;;20.90;56.12;100986.28;5053123;28;45453;-74
2022/08/02 04:09:01;;;;;;;;;2.25;2.00;;;;;20.97;56.00;100994.88;5053643;28;45458;-76
2022/08/02 04:11:30;;;;;;;;;2.00;2.00;;;;;20.94;56.12;101001.28;5053629;28;45453;-76
2022/08/02 04:13:56;;;;;;;;;2.75;2.75;;;;;20.92;55.76;100997.84;5056355;28;45998;-74
2022/08/02 04:16:28;;;;;;;;;4.00;3.00;;;;;20.94;55.92;100998.59;5067794;28;45475;-76
2022/08/02 04:19:02;;;;;;;;;2.50;2.50;;;;;20.96;55.81;101001.22;5073944;27;45491;-76
2022/08/02 04:21:32;;;;;;;;;4.00;4.00;;;;;20.94;55.61;101001.28;5058202;28;45563;-75
2022/08/02 04:24:01;;;;;;;;;3.00;3.00;;;;;20.87;55.68;100993.66;5073439;27;46052;-76
2022/08/02 04:26:29;;;;;;;;;3.00;3.00;;;;;20.91;55.87;100998.78;5054033;27;45361;-76
2022/08/02 04:28:55;;;;;;;;;3.00;3.00;;;;;20.97;55.68;100999.38;5057495;27;45354;-74
2022/08/02 04:31:22;;;;;;;;;2.75;2.00;;;;;20.87;55.97;100991.84;5065986;28;45373;-76
2022/08/02 04:33:48;;;;;;;;;4.25;3.75;;;;;20.85;55.83;100974.09;5072337;27;45652;-77
2022/08/02 04:36:14;;;;;;;;;3.50;2.50;;;;;20.99;56.08;101005.56;5055717;28;45509;-75
2022/08/02 04:38:41;;;;;;;;;3.50;2.00;;;;;20.96;56.01;100998.53;5060662;27;45618;-76
2022/08/02 04:41:06;;;;;;;;;2.00;2.00;;;;;21.04;55.75;101009.69;5055350;28;45602;-75
2022/08/02 04:43:32;;;;;;;;;3.00;2.75;;;;;21.26;55.56;101008.47;5066239;28;45958;-77
2022/08/02 04:45:57;;;;;;;;;3.50;3.50;;;;;21.54;54.59;100998.81;5057409;28;45373;-76
2022/08/02 04:48:23;;;;;;;;;3.00;2.00;;;;;21.91;54.04;101004.66;5063185;28;45457;-75
2022/08/02 04:50:49;;;;;;;;;3.00;3.00;;;;;22.12;53.06;101011.44;5073107;27;45414;-76
2022/08/02 04:53:15;;;;;;;;;2.75;2.75;;;;;22.34;52.75;101000.22;5062183;28;47665;-75
2022/08/02 04:55:41;;;;;;;;;2.50;2.50;;;;;22.51;52.02;100980.28;5061237;27;45390;-76
2022/08/02 04:58:06;;;;;;;;;3.00;3.00;;;;;22.85;51.46;101001.50;5063200;28;45439;-76
2022/08/02 05:00:32;;;;;;;;;2.50;2.50;;;;;22.87;50.99;100980.72;5065145;28;45335;-77
2022/08/02 05:02:58;;;;;;;;;4.00;2.50;;;;;23.26;50.41;100988.97;5068915;28;45814;-76
2022/08/02 05:05:24;;;;;;;;;3.50;3.50;;;;;23.60;49.31;100985.72;5073270;28;45499;-77
2022/08/02 05:07:50;;;;;;;;;3.75;2.75;;;;;24.18;48.46;100998.88;5071666;28;45540;-76
2022/08/02 05:10:15;;;;;;;;;4.75;2.50;;;;;24.70;47.79;100990.72;5065966;28;45385;-76
2022/08/02 05:12:41;;;;;;;;;2.25;2.25;;;;;25.14;46.82;100989.28;5076967;28;46010;-77
2022/08/02 05:15:07;;;;;;;;;3.00;3.00;;;;;25.38;45.82;100970.34;5071777;27;45364;-76
2022/08/02 05:17:32;;;;;;;;;4.00;4.00;;;;;25.87;44.67;100993.63;5073221;28;45364;-76
2022/08/02 05:19:58;;;;;;;;;3.00;3.00;;;;;26.50;43.93;100989.66;5056049;28;45393;-76
2022/08/02 05:22:23;;;;;;;;;1.75;1.75;;;;;27.06;42.62;100989.56;5062853;28;46656;-75
2022/08/02 05:24:49;;;;;;;;;3.75;3.75;;;;;27.52;41.77;100989.44;5072396;28;45298;-75
2022/08/02 05:27:14;;;;;;;;;2.50;2.50;;;;;27.78;41.05;100968.19;5068511;27;45566;-75
2022/08/02 05:29:39;;;;;;;;;3.00;3.00;;;;;28.39;40.64;100991.81;5068284;28;45334;-76
2022/08/02 05:32:05;;;;;;;;;3.75;3.75;;;;;28.83;39.56;100961.66;5056070;28;45352;-77
2022/08/02 05:34:30;;;;;;;;;5.50;4.25;;;;;29.61;37.76;100986.22;5055870;28;45411;-76
2022/08/02 05:36:56;;;;;;;;;2.25;1.00;;;;;30.07;36.92;100991.88;5059067;28;45374;-77
2022/08/02 05:39:21;;;;;;;;;7.00;7.00;;;;;30.50;36.41;100995.91;5058593;28;45366;-76
2022/08/02 05:41:46;;;;;;;;;11.50;7.25;;;;;30.87;35.69;100996.84;5067352;28;45425;-76
2022/08/02 05:44:12;;;;;;;;;10.50;5.50;;;;;31.22;34.73;101000.66;5072536;27;45435;-77
2022/08/02 05:46:38;;;;;;;;;8.75;6.75;;;;;31.56;34.48;101000.00;5064925;27;45888;-75
2022/08/02 05:49:03;;;;;;;;;9.25;8.00;;;;;31.83;33.41;100975.28;5075189;27;45525;-76
2022/08/02 05:51:36;;;;;;;;;19.75;16.50;;;;;32.18;33.29;100995.31;5056498;27;46169;-76
2022/08/02 05:54:14;;;;;;;;;12.75;10.00;;;;;32.56;32.45;101000.47;5056031;28;45454;-76
2022/08/02 05:56:51;;;;;;;;;5.00;3.75;;;;;32.87;32.41;100994.44;5057322;28;45325;-75
2022/08/02 05:59:32;;;;;;;;;3.75;3.75;;;;;33.19;31.80;100992.78;5073498;28;45611;-77
2022/08/02 06:02:02;;;;;;;;;4.00;4.00;;;;;33.62;30.83;100985.34;5066038;28;46158;-76
2022/08/02 06:04:55;;;;;;;;;4.50;4.00;;;;;34.08;30.70;100982.88;5075822;27;45507;-80
2022/08/02 06:07:21;;;;;;;;;3.50;3.50;;;;;34.31;29.99;100990.38;5060401;28;45443;-78
2022/08/02 06:09:55;;;;;;;;;3.75;3.75;;;;;34.73;29.70;100988.34;5071763;27;45699;-78
2022/08/02 06:12:24;;;;;;;;;3.50;2.00;;;;;34.75;28.95;100942.34;5076554;27;46013;-78
2022/08/02 06:14:51;;;;;;;;;10.50;7.00;;;;;35.00;28.08;100954.91;5080785;27;45594;-77
2022/08/02 06:17:18;;;;;;;;;6.00;5.00;;;;;35.45;28.38;100979.81;5055090;28;45411;-75
2022/08/02 06:19:45;;;;;;;;;9.00;6.00;;;;;35.78;27.86;100975.94;5062807;28;45497;-77
2022/08/02 06:22:16;;;;;;;;;4.25;4.25;;;;;35.82;27.46;100982.75;5068607;28;47679;-77
2022/08/02 06:24:43;;;;;;;;;3.75;3.50;;;;;36.13;27.05;100985.34;5073028;28;45608;-76
2022/08/02 06:27:13;;;;;;;;;4.00;4.00;;;;;36.51;27.11;100982.50;5065150;27;45506;-79
2022/08/02 06:29:41;;;;;;;;;2.00;2.00;;;;;36.78;27.02;100986.47;5063117;28;45394;-77
2022/08/02 06:32:07;;;;;;;;;3.50;3.50;;;;;37.03;26.67;100979.75;5058017;28;45651;-76
2022/08/02 06:34:40;;;;;;;;;4.25;3.00;;;;;37.51;25.63;100994.66;5067957;28;46059;-76
2022/08/02 06:37:29;;;;;;;;;3.00;3.00;;;;;37.78;25.43;100994.06;5069518;28;45301;-76
2022/08/02 06:40:23;;;;;;;;;5.25;5.25;;;;;38.22;24.89;100985.47;5065799;28;45524;-76
2022/08/02 06:43:08;;;;;;;;;3.00;3.00;;;;;38.24;24.74;100999.06;5056198;28;46259;-77
2022/08/02 06:45:33;;;;;;;;;3.75;3.50;;;;;38.43;24.54;100991.09;5064005;28;45527;-75
2022/08/02 06:47:59;;;;;;;;;3.75;3.75;;;;;38.24;23.71;101004.59;5062811;28;45411;-75
2022/08/02 06:50:25;;;;;;;;;6.00;3.50;;;;;38.14;24.50;100982.88;5065735;28;45510;-77
2022/08/02 06:52:50;;;;;;;;;5.50;4.00;;;;;38.32;24.11;101001.66;5066549;28;46132;-76
2022/08/02 06:55:16;;;;;;;;;1.75;1.75;;;;;38.56;24.04;100991.16;5067021;28;45516;-75
2022/08/02 06:57:41;;;;;;;;;4.00;2.50;;;;;38.60;23.79;101009.03;5069868;28;45487;-77
2022/08/02 07:00:08;;;;;;;;;4.00;4.00;;;;;38.58;23.77;101011.13;5074449;27;45512;-76
2022/08/02 07:02:35;;;;;;;;;2.75;2.75;;;;;38.94;23.35;100989.84;5053799;28;45405;-76
2022/08/02 07:05:01;;;;;;;;;2.50;2.00;;;;;39.42;23.38;101012.69;5062872;28;45521;-79
2022/08/02 07:07:26;;;;;;;;;3.00;3.00;;;;;39.60;22.70;101002.94;5067007;28;45376;-77
2022/08/02 07:09:52;;;;;;;;;2.75;2.75;;;;;39.70;22.40;101014.41;5064050;27;45505;-77
2022/08/02 07:12:18;;;;;;;;;3.00;3.00;;;;;39.94;22.47;101012.91;5059802;28;46045;-76
2022/08/02 07:14:43;;;;;;;;;2.00;2.00;;;;;40.06;21.80;101017.84;5052176;28;45508;-76
2022/08/02 07:17:09;;;;;;;;;2.75;2.75;;;;;39.92;21.63;101016.94;5055042;28;45500;-76
2022/08/02 07:19:35;;;;;;;;;3.25;3.25;;;;;40.12;22.76;101005.91;5071517;28;45528;-78
2022/08/02 07:22:01;;;;;;;;;5.75;5.75;;;;;40.20;21.98;101013.13;5061391;28;45575;-77
2022/08/02 07:24:27;;;;;;;;;4.00;4.00;;;;;40.17;22.77;101013.56;5057601;28;45522;-75
2022/08/02 07:26:52;;;;;;;;;2.25;2.25;;;;;39.87;22.06;101005.69;5064470;28;45617;-76
2022/08/02 07:29:18;;;;;;;;;2.00;2.00;;;;;39.95;23.22;101000.78;5068338;28;45557;-76
2022/08/02 07:31:43;;;;;;;;;1.00;1.00;;;;;40.31;22.19;101006.91;5067950;27;45431;-76
2022/08/02 07:34:08;;;;;;;;;3.00;3.00;;;;;40.56;22.19;101018.13;5066713;27;45491;-77
2022/08/02 07:36:34;;;;;;;;;4.00;3.25;;;;;40.61;22.14;101028.56;5057190;28;45481;-77
2022/08/02 07:38:59;;;;;;;;;3.75;3.25;;;;;40.72;22.49;101022.31;5072901;28;45476;-78
2022/08/02 07:41:24;;;;;;;;;3.75;3.00;;;;;40.96;22.13;101017.97;5057027;27;46434;-77
2022/08/02 07:43:50;;;;;;;;;5.00;5.00;;;;;41.02;21.64;101025.38;5057512;28;45450;-75
2022/08/02 07:46:15;;;;;;;;;1.00;1.00;;;;;41.18;20.98;101024.03;5054480;28;45264;-78
2022/08/02 07:48:41;;;;;;;;;4.25;4.25;;;;;40.92;21.29;101016.72;5063252;28;45606;-78
2022/08/02 07:51:07;;;;;;;;;4.00;4.00;;;;;40.56;21.43;101028.34;5073493;28;46074;-76
2022/08/02 07:53:32;;;;;;;;;4.25;4.25;;;;;40.33;22.24;101019.47;5056055;28;45371;-77
2022/08/02 07:55:57;;;;;;;;;6.50;5.00;;;;;40.29;22.39;101015.41;5053212;28;45510;-77
2022/08/02 07:58:23;;;;;;;;;4.25;4.25;;;;;40.43;21.96;101007.94;5053300;28;45357;-75
2022/08/02 08:00:48;;;;;;;;;4.50;4.50;;;;;40.68;22.98;101010.00;5057437;28;45486;-76
2022/08/02 08:03:13;;;;;;;;;4.25;4.25;;;;;41.07;22.04;101004.47;5073681;28;45485;-76
2022/08/02 08:05:39;;;;;;;;;6.25;4.25;;;;;41.20;21.62;101013.53;5068623;27;45393;-76
2022/08/02 08:08:04;;;;;;;;;5.50;3.75;;;;;41.14;21.29;101013.59;5053969;28;45452;-77
2022/08/02 08:10:31;;;;;;;;;5.00;4.00;;;;;40.95;21.00;101009.88;5052644;28;46426;-77
2022/08/02 08:12:56;;;;;;;;;7.00;5.00;;;;;41.04;21.97;101014.06;5053649;28;45481;-76
2022/08/02 08:15:22;;;;;;;;;6.25;4.75;;;;;40.88;21.47;101006.28;5053041;28;45449;-77
2022/08/02 08:17:47;;;;;;;;;4.25;4.25;;;;;40.75;21.70;101013.56;5053730;28;45484;-76
2022/08/02 08:20:12;;;;;;;;;5.25;4.75;;;;;40.83;21.50;101012.47;5053572;28;45940;-77
2022/08/02 08:22:38;;;;;;;;;3.75;3.00;;;;;41.12;21.54;101005.50;5055531;28;45640;-76
2022/08/02 08:25:04;;;;;;;;;7.25;6.00;;;;;41.08;21.47;101012.56;5053220;28;45431;-77
2022/08/02 08:27:29;;;;;;;;;10.25;7.50;;;;;41.02;21.22;100980.22;5052394;28;45584;-76
2022/08/02 08:29:56;;;;;;;;;13.75;10.00;;;;;40.96;21.18;100995.78;5053500;28;45441;-76
2022/08/02 08:32:22;;;;;;;;;5.50;5.50;;;;;41.07;20.82;101021.09;5067013;27;45544;-76
2022/08/02 08:34:48;;;;;;;;;6.00;5.00;;;;;41.34;20.92;101019.03;5074322;27;45260;-77
2022/08/02 08:37:14;;;;;;;;;8.00;5.50;;;;;41.66;21.75;101016.22;5061952;27;46063;-76
2022/08/02 08:39:41;;;;;;;;;6.00;3.75;;;;;41.84;21.29;101002.41;5075969;27;46456;-77
2022/08/02 08:42:07;;;;;;;;;3.75;3.75;;;;;42.04;21.79;101007.75;5069894;27;45628;-78
2022/08/02 08:44:34;;;;;;;;;5.25;3.50;;;;;42.04;20.99;100998.59;5069897;27;45498;-77
2022/08/02 08:47:02;;;;;;;;;8.00;7.00;;;;;42.28;20.02;101002.41;5056916;28;45334;-76
2022/08/02 08:49:38;;;;;;;;;4.75;4.75;;;;;42.10;20.38;101007.94;5057103;28;45540;-76
2022/08/02 08:52:05;;;;;;;;;4.25;4.25;;;;;41.92;20.46;101004.03;5056553;28;45558;-77
2022/08/02 08:54:35;;;;;;;;;3.50;3.50;;;;;41.95;20.86;101000.81;5055227;28;45730;-77
2022/08/02 08:57:08;;;;;;;;;4.00;4.00;;;;;42.12;20.58;101001.06;5072688;28;45660;-77
2022/08/02 08:59:39;;;;;;;;;5.00;4.00;;;;;42.29;21.70;100994.94;5063191;28;45422;-78
2022/08/02 09:02:13;;;;;;;;;4.00;2.00;;;;;42.27;19.86;100997.09;5060341;28;45530;-75
2022/08/02 09:04:38;;;;;;;;;6.50;6.00;;;;;42.32;20.40;101006.44;5056788;28;45445;-76
2022/08/02 09:07:04;;;;;;;;;5.00;5.00;;;;;42.27;20.45;101005.44;5057310;28;45496;-74
2022/08/02 09:09:29;;;;;;;;;9.50;7.25;;;;;42.13;20.07;100988.03;5055913;28;46252;-75
2022/08/02 09:12:12;;;;;;;;;6.50;3.50;;;;;42.32;20.99;100998.09;5056060;28;45509;-77
2022/08/02 09:14:37;;;;;;;;;6.00;4.25;;;;;42.27;20.81;101000.72;5056523;28;45343;-77
2022/08/02 09:17:09;;;;;;;;;4.75;4.75;;;;;42.30;21.64;100985.53;5056535;28;45442;-75
2022/08/02 09:19:35;;;;;;;;;2.50;2.50;;;;;42.42;21.39;100990.06;5054494;28;45451;-75
2022/08/02 09:22:10;;;;;;;;;6.00;5.00;;;;;42.63;19.94;100996.25;5057415;28;45496;-77
2022/08/02 09:24:45;;;;;;;;;5.00;5.00;;;;;42.81;20.69;100995.38;5054495;28;45510;-76
2022/08/02 09:27:20;;;;;;;;;6.25;5.25;;;;;42.65;19.44;100993.22;5065921;27;45354;-77
2022/08/02 09:29:47;;;;;;;;;4.25;3.25;;;;;42.38;19.58;100991.63;5072852;27;47192;-77
2022/08/02 09:32:12;;;;;;;;;5.00;4.75;;;;;42.26;22.01;100985.16;5073298;28;45359;-77
2022/08/02 09:34:50;;;;;;;;;4.00;4.00;;;;;42.55;21.44;100991.00;5074235;28;45656;-77
2022/08/02 09:37:27;;;;;;;;;3.25;3.25;;;;;42.82;20.11;100993.41;5075471;27;45560;-75
2022/08/02 09:39:53;;;;;;;;;4.75;4.75;;;;;42.76;19.54;100986.88;5065424;27;46158;-75
2022/08/02 09:42:19;;;;;;;;;6.00;3.50;;;;;42.77;21.14;100988.56;5067182;27;45436;-74
2022/08/02 09:45:01;;;;;;;;;6.25;4.50;;;;;42.83;19.39;100990.41;5066277;27;45541;-76
2022/08/02 09:47:29;;;;;;;;;4.00;4.00;;;;;42.85;20.69;100985.47;5065077;28;45396;-75
2022/08/02 09:49:56;;;;;;;;;6.00;4.50;;;;;42.86;19.64;100987.16;5070033;27;45317;-75
2022/08/02 09:52:41;;;;;;;;;5.75;4.50;;;;;42.31;19.91;100978.91;5068611;28;45484;-75
2022/08/02 09:55:08;;;;;;;;;3.00;3.00;;;;;41.98;19.97;100980.09;5054847;28;45496;-75
2022/08/02 09:57:37;;;;;;;;;5.00;4.25;;;;;42.00;20.59;100964.06;5056764;28;45535;-76
2022/08/02 10:00:09;;;;;;;;;5.25;5.25;;;;;42.00;20.52;100976.03;5054877;28;46621;-75
2022/08/02 10:02:34;;;;;;;;;4.00;4.00;;;;;41.93;20.15;100966.06;5054197;28;45445;-74
2022/08/02 10:05:00;;;;;;;;;3.75;3.75;;;;;41.98;20.44;100955.13;5056397;28;45416;-74
2022/08/02 10:07:25;;;;;;;;;4.00;4.00;;;;;42.04;20.67;100963.38;5056074;28;45334;-75
2022/08/02 10:09:51;;;;;;;;;3.00;3.00;;;;;42.30;20.59;100972.50;5055853;28;46096;-76
2022/08/02 10:12:18;;;;;;;;;3.50;3.50;;;;;42.28;19.70;100952.44;5055412;28;45473;-76
2022/08/02 10:14:44;;;;;;;;;4.00;4.00;;;;;42.06;20.05;100949.25;5056412;28;45362;-75
2022/08/02 10:17:09;;;;;;;;;3.50;3.25;;;;;41.87;21.50;100960.34;5070447;28;45331;-76
2022/08/02 10:19:35;;;;;;;;;3.50;3.50;;;;;41.71;20.53;100963.69;5069674;28;45365;-77
2022/08/02 10:22:05;;;;;;;;;7.75;6.50;;;;;41.84;21.44;100958.03;5055356;28;45410;-76
2022/08/02 10:24:32;;;;;;;;;5.75;5.25;;;;;41.87;20.70;100957.56;5059555;28;45408;-77
2022/08/02 10:26:59;;;;;;;;;2.50;2.50;;;;;42.10;20.58;100956.06;5075910;27;45458;-75
2022/08/02 10:29:29;;;;;;;;;4.25;4.25;;;;;42.19;20.88;100954.69;5072301;27;45371;-74
2022/08/02 10:31:58;;;;;;;;;5.00;5.00;;;;;42.13;20.42;100963.91;5065763;28;45450;-76
2022/08/02 10:34:31;;;;;;;;;2.50;2.50;;;;;42.25;20.20;100959.31;5072268;27;45482;-74
2022/08/02 10:37:01;;;;;;;;;4.50;4.50;;;;;42.22;20.07;100954.22;5071961;27;45572;-75
2022/08/02 10:39:27;;;;;;;;;3.25;3.25;;;;;42.06;20.48;100952.03;5053834;28;45541;-74
2022/08/02 10:41:52;;;;;;;;;2.50;2.50;;;;;42.22;20.94;100953.38;5056747;28;45572;-74
2022/08/02 10:44:29;;;;;;;;;4.00;4.00;;;;;42.21;20.59;100958.09;5070116;28;45601;-74
2022/08/02 10:47:13;;;;;;;;;4.50;4.00;;;;;42.24;21.23;100957.63;5067809;28;45517;-74
2022/08/02 10:49:59;;;;;;;;;3.25;3.25;;;;;42.21;20.94;100958.09;5060901;28;45513;-74
2022/08/02 10:52:30;;;;;;;;;4.25;4.25;;;;;42.17;21.86;100940.22;5061868;27;45480;-74
2022/08/02 10:55:02;;;;;;;;;3.00;3.00;;;;;42.30;21.14;100963.31;5063036;27;45512;-74
2022/08/02 10:57:32;;;;;;;;;4.75;4.75;;;;;42.36;20.57;100948.50;5068903;28;45553;-75
2022/08/02 11:00:24;;;;;;;;;4.50;3.25;;;;;42.27;20.76;100949.91;5060117;27;46504;-75
2022/08/02 11:02:50;;;;;;;;;4.75;4.75;;;;;42.21;19.78;100935.91;5063297;27;45633;-78
2022/08/02 11:05:28;;;;;;;;;3.75;3.50;;;;;42.13;20.19;100936.16;5068769;27;45603;-75
2022/08/02 11:07:53;;;;;;;;;2.25;2.25;;;;;41.90;20.50;100934.94;5063606;28;45508;-75
2022/08/02 11:10:24;;;;;;;;;5.25;5.25;;;;;41.62;20.64;100942.88;5068233;28;45929;-76
2022/08/02 11:13:10;;;;;;;;;3.00;3.00;;;;;41.32;20.65;100938.03;5055411;28;45592;-76
2022/08/02 11:16:08;;;;;;;;;3.00;3.00;;;;;41.23;21.65;100931.06;5067091;27;45599;-73
2022/08/02 11:18:42;;;;;;;;;3.00;3.00;;;;;41.14;20.87;100924.94;5057900;28;45445;-75
2022/08/02 11:21:40;;;;;;;;;4.25;3.25;;;;;41.20;21.40;100930.41;5066560;28;45499;-75
2022/08/02 11:24:27;;;;;;;;;2.75;2.75;;;;;41.31;20.99;100931.63;5014819;28;45582;-75
2022/08/02 11:26:53;;;;;;;;;3.25;3.25;;;;;41.38;20.77;100926.88;5011333;28;45450;-75
2022/08/02 11:29:19;;;;;;;;;5.50;4.25;;;;;41.43;21.29;100934.53;5014559;28;45517;-75
2022/08/02 11:31:44;;;;;;;;;3.00;3.00;;;;;41.39;19.72;100916.63;5014036;28;45553;-75